Current Weather Conditions: station 44139

sailwx.info

Wind from 080 at 7 knots gusting 11

Wave height 2.5 meters (8 feet), 12 second period

Air temperature 1.3° C
Water temperature 6.6° C

Last reported at 2015-Mar-30 12:00 UTC.
Time now 2015-Mar-30 12:58 UTC

Location: N 44°12' W 057°06'.
View on Google Maps.

See reports from other nearby stations

  
Tides and Currents Weather Stations Pressure Air Temp Water Temp Dewpoint Dewpoint Depression Visibility Wind Speed Wind Dir Waves Ship Positions
date/time (UTC)wind fromknots sea level pressurealtimeterstation pressurevisibilityair tempwater tempwave heightnotes
2015-Mar-30 12:00 080 7 gusting 11 1.3 6.6 2.5
2015-Mar-30 11:00 070 5 gusting 9 1.1 6.5 2.6
2015-Mar-30 10:00 0.6 6.5 2.6
2015-Mar-30 09:00 0.5 6.5 2.8
2015-Mar-30 08:00 330 3 gusting 5 0.4 6.5 3.1
2015-Mar-30 07:00 320 3 gusting 5 0.4 6.4 3.3
2015-Mar-30 06:00 260 1 gusting 3 0.4 6.5 3.5
2015-Mar-30 05:00 290 1 gusting 5 0.4 6.5 3.7
2015-Mar-30 04:00 280 1 gusting 3 0.3 6.6 3.4
2015-Mar-30 03:00 300 1 gusting 5 0.1 6.8 3.7
2015-Mar-30 02:00 300 5 gusting 9 0.2 7.1 4.1
2015-Mar-30 01:00 300 9 gusting 13 0.1 7.2 4.4
2015-Mar-30 00:00 310 13 gusting 17 0.2 7.4 4.4
2015-Mar-29 23:00 290 13 gusting 17 0.1 7.5 4.8
2015-Mar-29 22:00 290 13 gusting 19 -0.1 7.5 5.2
2015-Mar-29 21:00 280 15 gusting 21 -0.1 7.4 5.1
2015-Mar-29 20:00 280 17 gusting 21 -0.1 7.1 5.6
2015-Mar-29 19:00 280 19 gusting 23 -0.0 7.0 5.5
2015-Mar-29 18:00 280 21 gusting 25 -0.0 7.1 5.7
2015-Mar-29 17:00 290 23 gusting 29 0.2 6.9 6.4
2015-Mar-29 15:00 280 27 gusting 33 0.7 6.7 6.6
2015-Mar-29 13:00 280 27 gusting 33 1.0 6.5 7.1
2015-Mar-29 12:00 280 31 gusting 36 1.6 6.5 6.8
2015-Mar-29 11:00 270 31 gusting 40 2.2 6.5 6.9
2015-Mar-29 10:00 240 33 gusting 40 5.2 6.5 6.4
2015-Mar-29 09:00 210 34 gusting 46 7.4 6.5 5.3
2015-Mar-29 08:00 210 34 gusting 42 9.1 6.5 4.9
2015-Mar-29 07:00 200 27 gusting 36 9.1 6.6 4.9
2015-Mar-29 06:00 210 27 gusting 33 9.6 6.7 4.9
2015-Mar-29 05:00 200 27 gusting 33 9.8 6.7 4.7
2015-Mar-29 04:00 190 27 gusting 34 10.5 6.7 4.3
2015-Mar-29 03:00 120 11 gusting 15 7.2 6.7 4.5
2015-Mar-29 02:00 080 17 gusting 23 5.1 6.7 4.0
2015-Mar-29 01:00 080 23 gusting 29 4.6 6.6 4.0
2015-Mar-29 00:00 070 23 4.4 6.6 4.2
2015-Mar-28 23:00 020 21 4.4
2015-Mar-28 22:00 040 23 gusting 29 4.5 6.5 4.3
2015-Mar-28 21:00 020 23 gusting 31 4.5 6.5 4.4
2015-Mar-28 20:00 020 25 4.0
2015-Mar-28 19:00 020 25 gusting 31 3.7 6.7 4.9
2015-Mar-28 18:00 030 23 gusting 31 3.6 6.8 4.4
2015-Mar-28 17:00 040 19 gusting 27 3.8 6.8 5.2
2015-Mar-28 16:00 040 19 gusting 27 4.1 6.9 4.8
2015-Mar-28 15:00 040 17 gusting 23 4.4 6.9 4.4
2015-Mar-28 14:00 040 15 gusting 19 4.5 6.9 4.6
2015-Mar-28 13:00 030 17 gusting 23 4.3 6.8 4.4
2015-Mar-28 12:00 030 15 gusting 21 4.7 6.7 4.9